This is the latest recevied weather packets stored in our database for station/object W0CHP-13. If no packets are shown the sender has not sent any weather packets the latest 1 day(s).
| Time | Temp. | Humidity | Pressure | Rain* | Wind** | Luminosity | Snow |
|---|---|---|---|---|---|---|---|
| 1778117596 | 6.67° C | 43% | 1013.8 hPa | 0 mm | - | 0 W/m² | - |
| 1778116998 | 7.22° C | 43% | 1014.1 hPa | 0 mm | - | 1 W/m² | - |
| 1778116396 | 7.22° C | 43% | 1013.8 hPa | 0 mm | - | 3 W/m² | - |
| 1778115798 | 7.78° C | 42% | 1013.9 hPa | 0 mm | - | 7 W/m² | - |
| 1778115196 | 7.78° C | 42% | 1013.9 hPa | 0 mm | - | 13 W/m² | - |
| 1778113997 | 7.78° C | 40% | 1013.7 hPa | 0 mm | - | 21 W/m² | - |
| 1778113395 | 8.33° C | 40% | 1013.9 hPa | 0 mm | - | 38 W/m² | - |
| 1778112797 | 8.33° C | 41% | 1014.1 hPa | 0 mm | - | 43 W/m² | - |
| 1778109796 | 8.89° C | 39% | 1014.1 hPa | 0 mm | - | 97 W/m² | - |
| 1778109198 | 8.89° C | 39% | 1014.1 hPa | 0 mm | - | 94 W/m² | - |
| 1778104997 | 9.44° C | 38% | 1014.3 hPa | 0 mm | - | 131 W/m² | - |
| 1778100796 | 8.89° C | 38% | 1014.4 hPa | 0 mm | - | 144 W/m² | - |
| 1778099596 | 8.89° C | 37% | 1014.5 hPa | 0 mm | - | 156 W/m² | - |
| 1778097799 | 8.89° C | 36% | 1014.4 hPa | 0 mm | - | 197 W/m² | - |
| 1778096595 | 8.89° C | 37% | 1014.8 hPa | 0 mm | - | 179 W/m² | - |
| 1778093598 | 9.44° C | 36% | 1014.6 hPa | 0 mm | - | 215 W/m² | - |
| 1778092996 | 9.44° C | 37% | 1014.6 hPa | 0 mm | - | 228 W/m² | - |
| 1778090597 | 9.44° C | 35% | 1014.4 hPa | 0 mm | - | 197 W/m² | - |
| 1778089995 | 9.44° C | 36% | 1014.4 hPa | 0 mm | - | 267 W/m² | - |
| 1778088795 | 8.89° C | 36% | 1014.4 hPa | 0 mm | - | 267 W/m² | - |
| 1778086396 | 8.89° C | 38% | 1014.4 hPa | 0 mm | - | 163 W/m² | - |
| 1778085798 | 8.89° C | 41% | 1014.6 hPa | 0 mm | - | 288 W/m² | - |
| 1778085196 | 8.89° C | 38% | 1014.4 hPa | 0 mm | - | 238 W/m² | - |
| 1778082195 | 9.44° C | 41% | 1014.4 hPa | 0 mm | - | 369 W/m² | - |
| 1778081597 | 10° C | 36% | 1014.4 hPa | 0 mm | - | 272 W/m² | - |
* Rain latest hour (hover to see other rain measurements)
** Current wind speed in m/s (hover to see current wind gust speed)